Time;durP1;ratioP1;P1;durP2;ratioP2;P2;SDS_P1;SDS_P2;PMS_P1;PMS_P2;Temp;Humidity;BMP_temperature;BMP_pressure;BME280_temperature;BME280_humidity;BME280_pressure;Samples;Min_cycle;Max_cycle;Signal;HPM_P1;HPM_P2
2022/05/08 00:02:23;;;;;;;;;28.75;26.50;;;;;17.77;55.45;101787.47;5028657;28;45722;-83
2022/05/08 00:04:52;;;;;;;;;31.25;29.50;;;;;17.57;55.18;101756.88;5027212;28;45423;-83
2022/05/08 00:07:19;;;;;;;;;30.00;26.00;;;;;17.69;55.78;101778.44;5028785;28;45394;-83
2022/05/08 00:09:45;;;;;;;;;31.75;29.75;;;;;17.89;55.76;101819.69;5029054;28;45591;-83
2022/05/08 00:12:13;;;;;;;;;27.75;26.00;;;;;17.69;55.94;101786.41;5027091;28;48318;-83
2022/05/08 00:14:43;;;;;;;;;33.00;28.50;;;;;17.56;55.71;101768.38;5028463;28;45589;-83
2022/05/08 00:17:13;;;;;;;;;31.75;30.50;;;;;17.62;55.62;101776.47;5028102;28;45642;-83
2022/05/08 00:19:44;;;;;;;;;30.00;28.50;;;;;17.79;56.11;101817.69;5027300;28;45665;-82
2022/05/08 00:22:11;;;;;;;;;29.25;28.00;;;;;17.68;55.91;101804.09;5028472;28;45647;-82
2022/05/08 00:24:36;;;;;;;;;28.50;27.00;;;;;17.75;56.20;101805.19;5029303;28;46242;-82
2022/05/08 00:27:01;;;;;;;;;25.75;24.75;;;;;17.64;56.31;101794.28;5028626;28;45506;-83
2022/05/08 00:29:27;;;;;;;;;28.50;28.00;;;;;17.43;56.43;101753.91;5032077;28;45346;-83
2022/05/08 00:31:52;;;;;;;;;22.00;21.75;;;;;17.33;56.25;101741.28;5030743;28;45560;-84
2022/05/08 00:34:17;;;;;;;;;23.25;22.75;;;;;17.29;56.54;101737.66;5030264;28;45430;-83
2022/05/08 00:36:43;;;;;;;;;29.50;27.50;;;;;17.64;56.68;101806.69;5031167;28;45526;-82
2022/05/08 00:39:08;;;;;;;;;25.00;23.50;;;;;17.24;56.27;101739.28;5031924;28;45556;-84
2022/05/08 00:41:33;;;;;;;;;28.50;26.75;;;;;17.36;56.32;101762.59;5030607;28;46107;-83
2022/05/08 00:43:59;;;;;;;;;25.50;22.25;;;;;17.25;56.62;101749.97;5029842;28;45402;-83
2022/05/08 00:46:24;;;;;;;;;25.00;24.00;;;;;17.54;56.71;101806.47;5031551;28;45464;-83
2022/05/08 00:48:50;;;;;;;;;25.50;24.50;;;;;17.20;56.68;101745.41;5031692;28;45532;-84
2022/05/08 00:51:17;;;;;;;;;22.25;22.25;;;;;17.50;56.98;101809.00;5031415;28;46638;-84
2022/05/08 00:53:45;;;;;;;;;29.25;28.25;;;;;17.07;57.02;101738.00;5031664;28;45860;-81
2022/05/08 00:56:12;;;;;;;;;26.00;20.75;;;;;17.11;57.01;101747.84;5031761;28;45591;-83
2022/05/08 00:58:39;;;;;;;;;24.50;23.75;;;;;17.11;57.02;101753.16;5029831;28;45631;-83
2022/05/08 01:01:05;;;;;;;;;26.25;24.25;;;;;16.99;57.31;101736.09;5030783;28;45511;-84
2022/05/08 01:03:32;;;;;;;;;26.75;24.75;;;;;17.37;57.29;101813.13;5031377;28;45871;-83
2022/05/08 01:06:03;;;;;;;;;25.25;25.00;;;;;16.94;57.35;101743.00;5031005;28;45548;-83
2022/05/08 01:08:30;;;;;;;;;27.75;23.75;;;;;17.00;57.26;101761.78;5031842;28;45473;-83
2022/05/08 01:10:55;;;;;;;;;28.75;26.00;;;;;17.18;57.52;101801.16;5029563;28;47187;-83
2022/05/08 01:13:20;;;;;;;;;25.50;25.25;;;;;16.94;57.53;101758.03;5031533;28;45629;-83
2022/05/08 01:15:47;;;;;;;;;29.50;27.25;;;;;17.17;57.55;101810.00;5030636;28;45584;-83
2022/05/08 01:18:14;;;;;;;;;26.00;23.75;;;;;16.97;57.54;101774.06;5029338;28;45855;-83
2022/05/08 01:20:41;;;;;;;;;27.00;24.00;;;;;17.11;57.62;101804.53;5030822;28;45668;-83
2022/05/08 01:23:07;;;;;;;;;25.25;24.25;;;;;16.59;57.88;101717.31;5031255;28;45906;-84
2022/05/08 01:25:34;;;;;;;;;25.00;24.00;;;;;16.98;58.08;101791.78;5031763;28;45457;-82
2022/05/08 01:28:03;;;;;;;;;20.75;20.75;;;;;16.12;58.14;101646.25;5030684;28;45791;-82
2022/05/08 01:30:29;;;;;;;;;27.25;25.75;;;;;17.02;58.21;101799.88;5031080;28;45350;-83
2022/05/08 01:32:55;;;;;;;;;23.25;21.75;;;;;16.94;58.17;101801.44;5030285;28;45730;-84
2022/05/08 01:35:20;;;;;;;;;28.75;24.75;;;;;16.70;58.01;101753.91;5031010;28;45653;-83
2022/05/08 01:37:46;;;;;;;;;27.25;25.00;;;;;16.80;58.19;101780.69;5030041;28;45507;-83
2022/05/08 01:40:12;;;;;;;;;26.25;25.50;;;;;16.67;58.20;101759.13;5030688;28;46295;-83
2022/05/08 01:42:37;;;;;;;;;19.75;19.25;;;;;16.68;58.58;101775.94;5046236;28;45794;-84
2022/05/08 01:45:03;;;;;;;;;26.33;24.33;;;;;16.82;58.29;101801.13;5030354;28;45805;-82
2022/05/08 01:50:13;;;;;;;;;24.25;24.00;;;;;16.74;58.95;101797.38;5030313;28;45796;-83
2022/05/08 01:52:38;;;;;;;;;28.00;24.25;;;;;16.69;58.70;101794.56;5029013;28;45767;-83
2022/05/08 01:55:04;;;;;;;;;25.75;25.00;;;;;16.45;59.14;101762.97;5029300;28;45466;-82
2022/05/08 01:57:29;;;;;;;;;23.50;22.50;;;;;16.61;58.83;101785.50;5029491;28;45320;-82
2022/05/08 01:59:54;;;;;;;;;23.33;22.33;;;;;16.61;59.15;101800.53;5030127;28;45733;-82
2022/05/08 02:02:20;;;;;;;;;23.00;21.33;;;;;16.57;58.80;101798.66;5028689;28;45752;-83
2022/05/08 02:04:46;;;;;;;;;25.00;24.50;;;;;16.63;58.89;101810.34;5029217;28;46393;-83
2022/05/08 02:07:11;;;;;;;;;25.50;23.00;;;;;16.40;59.17;101775.22;5030214;28;45303;-83
2022/05/08 02:09:37;;;;;;;;;27.50;25.75;;;;;16.17;59.43;101728.59;5030629;28;45471;-83
2022/05/08 02:12:03;;;;;;;;;26.75;26.00;;;;;16.45;59.32;101784.22;5029537;28;45826;-83
2022/05/08 02:14:28;;;;;;;;;25.00;23.75;;;;;16.44;59.67;101786.81;5030485;28;45576;-82
2022/05/08 02:16:54;;;;;;;;;25.33;24.00;;;;;16.20;59.49;101745.47;5029087;28;45577;-82
2022/05/08 02:19:19;;;;;;;;;30.25;27.75;;;;;16.44;59.41;101789.47;5030466;28;45323;-83
2022/05/08 02:21:44;;;;;;;;;23.33;22.33;;;;;16.30;59.33;101766.94;5030150;28;45429;-83
2022/05/08 02:24:10;;;;;;;;;25.67;24.67;;;;;16.45;59.47;101800.13;5028828;28;45438;-83
2022/05/08 02:26:35;;;;;;;;;24.33;23.33;;;;;16.20;59.79;101766.69;5030585;28;45656;-84
2022/05/08 02:29:00;;;;;;;;;28.67;27.00;;;;;16.21;59.92;101767.63;5029632;28;46613;-82
2022/05/08 02:31:26;;;;;;;;;25.75;25.25;;;;;16.11;60.20;101749.66;5028104;28;45531;-83
2022/05/08 02:33:51;;;;;;;;;29.00;26.00;;;;;16.14;59.61;101763.88;5029914;28;46809;-83
2022/05/08 02:36:16;;;;;;;;;26.33;23.00;;;;;16.02;60.10;101746.75;5029749;28;45511;-83
2022/05/08 02:38:42;;;;;;;;;24.67;23.00;;;;;16.14;59.97;101770.94;5028673;28;47247;-84
2022/05/08 02:41:07;;;;;;;;;25.75;23.50;;;;;16.31;60.26;101795.31;5029799;28;45442;-83
2022/05/08 02:43:32;;;;;;;;;26.67;25.67;;;;;16.12;60.14;101772.66;5029650;28;45595;-83
2022/05/08 02:45:59;;;;;;;;;25.67;25.00;;;;;16.14;60.35;101789.50;5027974;28;45845;-83
2022/05/08 02:48:26;;;;;;;;;28.50;25.75;;;;;16.06;60.42;101778.69;5029695;28;46616;-82
2022/05/08 02:50:51;;;;;;;;;25.75;25.50;;;;;16.12;60.36;101781.50;5027185;28;45869;-83
2022/05/08 02:53:17;;;;;;;;;28.33;27.67;;;;;16.04;60.46;101784.78;5030064;28;45501;-84
2022/05/08 02:58:35;;;;;;;;;27.50;26.00;;;;;16.19;60.67;101819.72;5029692;28;45432;-84
2022/05/08 03:01:02;;;;;;;;;27.50;26.75;;;;;15.90;60.69;101772.03;5029416;28;45403;-82
2022/05/08 03:03:28;;;;;;;;;31.25;28.00;;;;;15.93;60.71;101788.03;5029972;28;45353;-84
2022/05/08 03:05:53;;;;;;;;;29.75;26.75;;;;;15.98;60.71;101798.78;5028832;28;45241;-83
2022/05/08 03:08:20;;;;;;;;;27.50;26.50;;;;;15.86;60.54;101783.41;5029801;28;45390;-83
2022/05/08 03:13:39;;;;;;;;;28.25;27.50;;;;;15.94;60.90;101808.38;5029326;28;45382;-82
2022/05/08 03:16:07;;;;;;;;;28.25;25.50;;;;;15.61;61.07;101756.97;5028646;28;45529;-84
2022/05/08 03:18:34;;;;;;;;;31.25;30.00;;;;;15.64;61.31;101765.94;5029065;28;46347;-84
2022/05/08 03:21:00;;;;;;;;;29.50;27.50;;;;;15.69;61.31;101782.00;5028827;28;45537;-83
2022/05/08 03:23:26;;;;;;;;;26.75;25.25;;;;;15.94;61.43;101826.03;5029798;28;45299;-84
2022/05/08 03:25:52;;;;;;;;;30.25;28.00;;;;;15.89;61.27;101833.84;5029218;28;45546;-82
2022/05/08 03:28:17;;;;;;;;;30.00;28.00;;;;;15.58;61.34;101770.16;5027637;28;47383;-84
2022/05/08 03:30:43;;;;;;;;;29.50;28.75;;;;;15.60;61.58;101784.31;5027577;28;45750;-83
2022/05/08 03:33:09;;;;;;;;;31.25;29.75;;;;;15.62;62.11;101799.44;5028821;28;45514;-83
2022/05/08 03:35:39;;;;;;;;;33.75;30.75;;;;;15.78;61.63;101822.03;5029220;28;45342;-83
2022/05/08 03:38:05;;;;;;;;;41.50;34.75;;;;;15.58;61.71;101794.00;5029365;28;46406;-82
2022/05/08 03:40:34;;;;;;;;;33.75;30.75;;;;;15.49;62.03;101784.00;5028233;28;46147;-83
2022/05/08 03:43:00;;;;;;;;;35.75;31.75;;;;;15.30;62.13;101753.38;5028854;28;45373;-83
2022/05/08 03:45:26;;;;;;;;;39.25;33.25;;;;;15.67;62.29;101831.41;5029168;28;45503;-82
2022/05/08 03:47:53;;;;;;;;;39.00;34.00;;;;;15.52;61.92;101807.03;5028100;28;46856;-82
2022/05/08 03:50:21;;;;;;;;;41.25;35.50;;;;;15.34;62.41;101787.06;5029073;28;45425;-82
2022/05/08 03:52:47;;;;;;;;;45.75;37.50;;;;;15.13;62.49;101758.16;5027616;28;45567;-83
2022/05/08 03:55:15;;;;;;;;;34.75;31.50;;;;;15.23;62.64;101775.25;5029133;28;45652;-82
2022/05/08 03:57:41;;;;;;;;;40.00;33.50;;;;;15.29;62.75;101782.47;5028452;28;45382;-83
2022/05/08 04:00:07;;;;;;;;;41.00;35.25;;;;;15.24;62.58;101787.63;5029160;28;45926;-84
2022/05/08 04:02:33;;;;;;;;;43.25;36.75;;;;;15.19;63.00;101783.94;5029130;28;45458;-82
2022/05/08 04:05:00;;;;;;;;;42.75;36.00;;;;;15.39;62.86;101835.78;5030506;28;45485;-82
2022/05/08 04:07:26;;;;;;;;;45.50;36.50;;;;;15.15;63.08;101797.91;5032999;28;46637;-84
2022/05/08 04:09:51;;;;;;;;;45.25;37.00;;;;;15.08;63.30;101780.94;5032459;28;45591;-85
2022/05/08 04:12:16;;;;;;;;;44.00;37.33;;;;;15.01;63.05;101770.97;5032166;28;45429;-84
2022/05/08 04:14:42;;;;;;;;;42.25;36.75;;;;;14.98;63.36;101772.66;5032382;28;45401;-84
2022/05/08 04:17:07;;;;;;;;;43.75;36.25;;;;;15.26;63.55;101817.69;5031202;28;45254;-84
2022/05/08 04:19:33;;;;;;;;;45.50;39.00;;;;;14.82;63.53;101750.94;5032061;28;45401;-82
2022/05/08 04:24:42;;;;;;;;;45.50;38.25;;;;;14.86;63.71;101763.44;5032267;28;45390;-83
2022/05/08 04:27:08;;;;;;;;;46.00;38.50;;;;;15.12;64.00;101814.63;5031478;28;46797;-82
2022/05/08 04:29:34;;;;;;;;;50.50;41.25;;;;;15.21;64.14;101835.19;5030827;28;45641;-83
2022/05/08 04:31:59;;;;;;;;;45.75;38.00;;;;;15.15;63.88;101829.69;5029606;28;45515;-83
2022/05/08 04:34:25;;;;;;;;;45.50;38.25;;;;;14.99;64.18;101792.97;5032090;28;45634;-83
2022/05/08 04:36:50;;;;;;;;;48.75;40.50;;;;;15.11;64.14;101803.94;5031479;28;45548;-84
2022/05/08 04:39:17;;;;;;;;;52.75;42.75;;;;;15.08;64.00;101803.88;5030807;28;45517;-83
2022/05/08 04:41:43;;;;;;;;;49.25;40.75;;;;;15.19;64.03;101824.56;5030282;28;45771;-84
2022/05/08 04:44:08;;;;;;;;;50.75;41.00;;;;;15.11;64.21;101801.31;5031716;28;45393;-85
2022/05/08 04:46:33;;;;;;;;;51.50;41.75;;;;;15.11;64.19;101786.31;5031225;28;45441;-83
2022/05/08 04:48:59;;;;;;;;;52.75;42.50;;;;;15.32;63.99;101823.22;5029678;28;45763;-83
2022/05/08 04:51:24;;;;;;;;;48.75;41.00;;;;;15.28;63.93;101816.00;5030919;28;45607;-83
2022/05/08 04:53:50;;;;;;;;;51.25;42.00;;;;;15.10;64.06;101776.56;5031877;28;45844;-84
2022/05/08 04:56:15;;;;;;;;;50.67;42.67;;;;;15.29;63.89;101801.03;5031225;28;46294;-83
2022/05/08 04:58:41;;;;;;;;;54.25;41.25;;;;;15.54;63.94;101837.13;5030535;28;45572;-83
2022/05/08 05:01:06;;;;;;;;;53.00;41.75;;;;;15.58;63.60;101852.28;5031155;28;45502;-83
2022/05/08 05:03:32;;;;;;;;;48.25;40.50;;;;;15.68;63.73;101872.97;5031025;28;45364;-85
2022/05/08 05:05:57;;;;;;;;;52.25;42.25;;;;;15.48;63.56;101825.50;5029718;28;47091;-83
2022/05/08 05:08:22;;;;;;;;;50.75;41.50;;;;;15.47;63.73;101833.41;5031791;28;45432;-83
2022/05/08 05:10:48;;;;;;;;;55.50;44.75;;;;;15.70;63.80;101865.94;5030895;28;45361;-82
2022/05/08 05:13:14;;;;;;;;;53.00;43.75;;;;;15.60;63.18;101848.81;5031367;28;45292;-84
2022/05/08 05:15:39;;;;;;;;;50.75;41.50;;;;;15.39;63.58;101816.34;5031113;28;46236;-85
2022/05/08 05:18:05;;;;;;;;;52.67;43.67;;;;;15.60;63.36;101845.28;5028232;28;47823;-83
2022/05/08 05:20:30;;;;;;;;;53.00;44.50;;;;;15.62;63.61;101863.03;5031659;28;45446;-83
2022/05/08 05:23:00;;;;;;;;;50.75;42.00;;;;;15.62;63.68;101856.84;5031019;28;45485;-83
2022/05/08 05:25:26;;;;;;;;;52.50;42.25;;;;;15.67;63.35;101864.13;5031383;28;45493;-83
2022/05/08 05:27:52;;;;;;;;;54.50;43.50;;;;;15.70;63.24;101874.78;5031282;28;45466;-83
2022/05/08 05:30:18;;;;;;;;;51.25;42.25;;;;;15.74;63.46;101873.16;5031247;28;45451;-83
2022/05/08 05:32:43;;;;;;;;;53.50;43.25;;;;;15.45;63.49;101828.03;5030455;28;45450;-84
2022/05/08 05:35:08;;;;;;;;;54.50;43.75;;;;;15.61;63.28;101857.66;5030860;28;46292;-84
2022/05/08 05:37:34;;;;;;;;;51.25;40.00;;;;;15.64;63.50;101853.41;5031078;28;45524;-83
2022/05/08 05:40:00;;;;;;;;;48.00;39.50;;;;;15.57;63.25;101842.56;5030222;28;45608;-84
2022/05/08 05:42:25;;;;;;;;;53.00;43.25;;;;;15.84;63.07;101887.59;5031431;28;45457;-85
2022/05/08 05:44:50;;;;;;;;;51.50;42.50;;;;;15.49;62.91;101829.03;5030909;28;45447;-83
2022/05/08 05:49:59;;;;;;;;;52.00;41.50;;;;;15.74;63.19;101867.84;5030778;28;45466;-83
2022/05/08 05:52:25;;;;;;;;;48.00;40.00;;;;;15.59;63.23;101832.88;5030945;28;45711;-82
2022/05/08 05:54:50;;;;;;;;;53.25;42.50;;;;;16.02;63.21;101903.19;5030149;28;45457;-83
2022/05/08 05:57:15;;;;;;;;;51.33;42.00;;;;;15.78;63.01;101864.44;5030725;28;48859;-84
2022/05/08 05:59:41;;;;;;;;;52.00;43.00;;;;;15.75;63.07;101859.03;5031041;28;45681;-85
2022/05/08 06:02:07;;;;;;;;;54.00;43.67;;;;;16.09;62.99;101911.38;5029179;28;45517;-82
2022/05/08 06:04:32;;;;;;;;;54.75;43.25;;;;;15.98;62.78;101889.81;5030742;28;46362;-83
2022/05/08 06:06:57;;;;;;;;;54.25;43.00;;;;;15.98;62.91;101880.97;5030417;28;45520;-85
2022/05/08 06:09:23;;;;;;;;;54.00;43.67;;;;;15.90;62.90;101858.63;5029554;28;46087;-83
2022/05/08 06:11:48;;;;;;;;;55.67;44.00;;;;;16.05;62.87;101882.06;5030246;28;45524;-85
2022/05/08 06:14:16;;;;;;;;;50.67;42.33;;;;;15.81;62.22;101824.78;5030471;28;45390;-83
2022/05/08 06:16:42;;;;;;;;;53.25;44.25;;;;;16.00;62.57;101856.28;5029016;28;45668;-86
2022/05/08 06:19:08;;;;;;;;;51.00;42.75;;;;;16.17;62.80;101882.44;5030249;28;45541;-84
2022/05/08 06:21:34;;;;;;;;;54.25;43.25;;;;;16.10;62.62;101861.88;5028915;28;45531;-83
2022/05/08 06:23:59;;;;;;;;;53.50;42.50;;;;;16.47;62.46;101915.19;5029138;28;45682;-83
2022/05/08 06:26:25;;;;;;;;;52.00;42.50;;;;;16.34;61.99;101891.78;5030622;28;45405;-83
2022/05/08 06:28:50;;;;;;;;;56.00;42.33;;;;;16.47;61.96;101920.47;5030347;28;45605;-83
2022/05/08 06:31:17;;;;;;;;;52.00;43.00;;;;;16.24;61.96;101880.00;5029722;28;45258;-84
2022/05/08 06:33:46;;;;;;;;;54.00;42.25;;;;;16.56;61.76;101934.88;5031732;28;46201;-83
2022/05/08 06:36:12;;;;;;;;;47.25;39.25;;;;;16.55;62.05;101927.75;5028215;28;45426;-84
2022/05/08 06:38:37;;;;;;;;;56.00;43.25;;;;;16.23;61.74;101872.00;5030181;28;45449;-84
2022/05/08 06:41:02;;;;;;;;;52.50;43.25;;;;;16.33;61.65;101879.38;5029603;28;45558;-84
2022/05/08 06:43:28;;;;;;;;;52.67;43.67;;;;;16.38;61.89;101896.31;5028738;28;46145;-83
2022/05/08 06:45:53;;;;;;;;;53.00;42.67;;;;;16.30;61.92;101886.34;5029351;28;45470;-84
2022/05/08 06:48:18;;;;;;;;;53.67;43.67;;;;;16.38;61.58;101892.78;5029033;28;45367;-85
2022/05/08 06:50:44;;;;;;;;;48.33;39.33;;;;;16.55;62.04;101917.13;5030232;28;46153;-85
2022/05/08 06:53:09;;;;;;;;;50.00;41.50;;;;;16.38;62.16;101874.19;5029844;28;45414;-83
2022/05/08 06:55:35;;;;;;;;;53.00;41.25;;;;;16.65;61.66;101912.16;5029591;28;45381;-83
2022/05/08 06:58:01;;;;;;;;;50.25;40.75;;;;;16.53;61.77;101893.22;5029689;28;45574;-85
2022/05/08 07:03:10;;;;;;;;;54.50;43.75;;;;;16.53;61.14;101885.25;5028876;28;45434;-83
2022/05/08 07:05:40;;;;;;;;;49.00;39.33;;;;;16.79;61.16;101917.88;5030152;28;45548;-86
2022/05/08 07:08:06;;;;;;;;;50.25;41.00;;;;;16.83;60.80;101929.47;5029737;28;45469;-84
2022/05/08 07:10:32;;;;;;;;;47.50;38.50;;;;;16.83;61.19;101925.06;5029644;28;45683;-84
2022/05/08 07:12:57;;;;;;;;;51.00;40.75;;;;;16.84;61.28;101918.88;5029511;28;45514;-83
2022/05/08 07:15:23;;;;;;;;;51.00;41.75;;;;;17.07;60.84;101938.13;5028007;28;45530;-84
2022/05/08 07:17:48;;;;;;;;;51.25;42.50;;;;;16.82;60.94;101895.81;5028402;28;45520;-84
2022/05/08 07:20:13;;;;;;;;;51.33;41.33;;;;;16.82;60.87;101895.81;5029849;28;45330;-83
2022/05/08 07:22:39;;;;;;;;;52.00;41.67;;;;;17.02;60.73;101921.16;5029279;28;53079;-84
2022/05/08 07:25:05;;;;;;;;;51.00;41.00;;;;;16.98;60.63;101909.56;5029062;28;45499;-83
2022/05/08 07:27:32;;;;;;;;;50.50;41.25;;;;;17.25;60.58;101953.66;5029894;28;45461;-83
2022/05/08 07:29:57;;;;;;;;;45.75;38.25;;;;;17.05;60.12;101915.06;5029299;28;45697;-82
2022/05/08 07:32:24;;;;;;;;;47.75;40.00;;;;;17.13;60.30;101930.31;5028749;28;45417;-84
2022/05/08 07:37:34;;;;;;;;;50.00;41.00;;;;;17.08;59.90;101912.47;5032972;28;45417;-83
2022/05/08 07:39:59;;;;;;;;;53.75;42.25;;;;;17.13;59.92;101922.34;5031152;28;45705;-82
2022/05/08 07:42:24;;;;;;;;;51.25;42.00;;;;;17.15;59.74;101933.94;5033065;28;45426;-84
2022/05/08 07:44:50;;;;;;;;;49.75;40.25;;;;;17.25;59.53;101957.22;5032682;28;45574;-85
2022/05/08 07:47:15;;;;;;;;;50.50;39.75;;;;;17.35;60.20;101970.75;5032108;28;45406;-84
2022/05/08 07:49:40;;;;;;;;;50.00;40.33;;;;;17.14;59.70;101926.81;5033549;28;45597;-85
2022/05/08 07:52:06;;;;;;;;;52.00;41.50;;;;;17.32;59.88;101955.63;5031114;28;47224;-83
2022/05/08 07:54:31;;;;;;;;;43.00;35.50;;;;;17.19;59.91;101937.53;5032700;28;45645;-84
2022/05/08 07:56:56;;;;;;;;;46.33;39.00;;;;;17.13;59.91;101918.78;5032547;28;45607;-82
2022/05/08 07:59:22;;;;;;;;;45.33;37.00;;;;;17.47;60.14;101982.59;5031720;28;45605;-83
2022/05/08 08:01:47;;;;;;;;;51.67;42.00;;;;;17.18;59.69;101917.16;5031052;28;46254;-83
2022/05/08 08:04:12;;;;;;;;;49.33;40.00;;;;;17.23;59.65;101918.16;5032693;28;45647;-83
2022/05/08 08:06:38;;;;;;;;;49.67;40.00;;;;;17.59;59.77;101975.81;5032728;28;45541;-84
2022/05/08 08:09:04;;;;;;;;;48.00;39.75;;;;;17.42;59.54;101951.44;5032084;28;45515;-85
2022/05/08 08:11:31;;;;;;;;;49.75;40.75;;;;;17.40;59.25;101940.78;5031165;28;47424;-83
2022/05/08 08:13:56;;;;;;;;;49.00;40.00;;;;;17.38;59.21;101929.19;5030561;28;45978;-84
2022/05/08 08:16:21;;;;;;;;;49.00;40.00;;;;;17.70;59.39;101976.97;5031391;28;45387;-84
2022/05/08 08:18:48;;;;;;;;;48.25;40.00;;;;;17.77;59.13;101981.63;5032252;28;45643;-86
2022/05/08 08:21:16;;;;;;;;;49.25;40.00;;;;;17.87;59.27;101983.63;5032296;28;45422;-82
2022/05/08 08:23:43;;;;;;;;;49.00;40.50;;;;;17.58;58.70;101918.16;5031991;28;45837;-85
2022/05/08 08:26:13;;;;;;;;;55.75;44.25;;;;;18.12;58.97;101981.56;5032205;28;45564;-84
2022/05/08 08:28:38;;;;;;;;;50.00;40.50;;;;;18.00;58.37;101956.47;5032459;28;45796;-83
2022/05/08 08:31:08;;;;;;;;;47.25;38.75;;;;;18.22;58.16;101975.59;5031177;28;46224;-84
2022/05/08 08:33:37;;;;;;;;;51.50;43.50;;;;;17.79;58.20;101906.34;5031807;28;45383;-82
2022/05/08 08:36:02;;;;;;;;;50.00;41.00;;;;;18.11;58.14;101959.38;5032035;28;45556;-83
2022/05/08 08:38:28;;;;;;;;;51.50;41.00;;;;;18.03;58.30;101924.63;5032106;28;45478;-85
2022/05/08 08:40:56;;;;;;;;;48.50;38.75;;;;;18.36;58.25;101967.91;5031712;28;45894;-85
2022/05/08 08:43:21;;;;;;;;;53.00;42.25;;;;;18.37;57.80;101957.31;5032352;28;45877;-84
2022/05/08 08:48:34;;;;;;;;;50.00;42.00;;;;;18.61;57.51;101985.34;5031212;28;45552;-84
2022/05/08 08:51:01;;;;;;;;;47.75;40.25;;;;;18.46;57.39;101969.91;5031729;28;45483;-84
2022/05/08 08:53:28;;;;;;;;;47.75;40.00;;;;;18.64;57.24;101975.66;5032072;28;46030;-83
2022/05/08 08:55:55;;;;;;;;;49.25;41.00;;;;;18.81;57.23;101982.25;5030095;28;45506;-82
2022/05/08 08:58:23;;;;;;;;;50.00;42.00;;;;;18.72;56.82;101938.56;5032050;28;45643;-83
2022/05/08 09:00:49;;;;;;;;;48.75;40.75;;;;;19.02;56.69;101976.47;5029173;28;48547;-84
2022/05/08 09:03:25;;;;;;;;;54.50;44.25;;;;;18.87;56.66;101938.88;5031638;28;46049;-83
2022/05/08 09:05:58;;;;;;;;;49.75;41.50;;;;;18.71;56.25;101920.78;5029981;28;45396;-83
2022/05/08 09:08:32;;;;;;;;;52.00;43.50;;;;;19.11;56.22;101980.16;5031593;28;45432;-82
2022/05/08 09:10:58;;;;;;;;;47.25;39.75;;;;;19.10;56.61;101989.03;5031134;28;46527;-82
2022/05/08 09:13:29;;;;;;;;;55.75;43.00;;;;;19.07;56.12;101966.81;5031841;28;45429;-83
2022/05/08 09:16:07;;;;;;;;;48.50;40.25;;;;;18.82;56.13;101932.56;5030661;28;45691;-85
2022/05/08 09:18:46;;;;;;;;;50.50;40.50;;;;;19.03;55.94;101962.28;5031084;28;45756;-84
2022/05/08 09:24:13;;;;;;;;;48.75;39.75;;;;;19.24;55.67;101987.53;5031315;28;45482;-86
2022/05/08 09:26:40;;;;;;;;;49.50;41.00;;;;;19.00;55.73;101951.53;5029917;28;45712;-83
2022/05/08 09:29:07;;;;;;;;;50.75;40.25;;;;;18.89;55.92;101923.81;5030881;28;45304;-83
2022/05/08 09:31:43;;;;;;;;;54.25;44.00;;;;;19.21;55.87;101969.75;5029205;28;47212;-84
2022/05/08 09:34:08;;;;;;;;;50.00;41.25;;;;;19.26;55.64;101970.72;5029415;28;45570;-83
2022/05/08 09:36:34;;;;;;;;;59.50;45.50;;;;;19.27;55.41;101952.94;5030819;28;45586;-84
2022/05/08 09:39:02;;;;;;;;;53.25;44.00;;;;;19.46;55.32;101984.41;5030962;28;45512;-83
2022/05/08 09:41:34;;;;;;;;;50.50;41.25;;;;;19.22;55.06;101936.88;5030959;28;45787;-83
2022/05/08 09:44:16;;;;;;;;;52.50;43.00;;;;;19.41;54.71;101962.09;5030271;28;45426;-83
2022/05/08 09:46:44;;;;;;;;;50.25;42.00;;;;;19.39;55.00;101958.50;5028741;28;45391;-82
2022/05/08 09:49:17;;;;;;;;;53.50;44.50;;;;;19.61;54.81;101983.81;5031192;28;45539;-83
2022/05/08 09:51:43;;;;;;;;;52.50;43.00;;;;;19.48;55.28;101963.09;5030282;28;46742;-83
2022/05/08 09:54:08;;;;;;;;;55.00;45.75;;;;;19.31;54.63;101930.81;5030766;28;45549;-82
2022/05/08 09:56:35;;;;;;;;;53.25;43.75;;;;;19.40;54.93;101960.28;5030980;28;45538;-83
2022/05/08 09:59:01;;;;;;;;;54.25;43.00;;;;;19.53;55.34;101958.75;5029235;28;45767;-82
2022/05/08 10:01:26;;;;;;;;;54.50;44.75;;;;;19.56;54.40;101927.69;5030108;28;45746;-83
2022/05/08 10:03:53;;;;;;;;;56.50;46.75;;;;;19.89;54.28;101969.16;5030489;28;45546;-83
2022/05/08 10:06:19;;;;;;;;;56.00;46.50;;;;;19.74;54.29;101931.56;5045760;28;45581;-83
2022/05/08 10:08:46;;;;;;;;;57.50;47.75;;;;;19.76;54.11;101938.72;5030873;28;45567;-84
2022/05/08 10:14:04;;;;;;;;;51.75;44.25;;;;;19.72;53.92;101949.31;5029806;28;45540;-82
2022/05/08 10:16:43;;;;;;;;;55.25;45.50;;;;;19.83;54.54;101967.28;5029913;28;45495;-84
2022/05/08 10:19:17;;;;;;;;;50.50;41.50;;;;;20.01;54.17;101961.34;5030453;28;45400;-83
2022/05/08 10:22:05;;;;;;;;;52.00;42.00;;;;;20.21;54.06;101966.09;5029834;28;45541;-82
2022/05/08 10:24:35;;;;;;;;;55.50;44.00;;;;;19.98;53.66;101905.25;5030601;28;45985;-83
2022/05/08 10:27:18;;;;;;;;;54.75;44.25;;;;;20.15;53.54;101901.91;5030293;28;44815;-82
2022/05/08 10:29:50;;;;;;;;;55.00;45.50;;;;;20.47;53.29;101959.34;5029573;28;45329;-82
2022/05/08 10:35:10;;;;;;;;;50.75;43.25;;;;;20.23;53.57;101926.94;5029921;28;45895;-84
2022/05/08 10:37:37;;;;;;;;;48.25;40.50;;;;;20.34;52.95;101941.34;5029378;28;45454;-83
2022/05/08 10:40:03;;;;;;;;;52.25;43.50;;;;;20.34;53.46;101938.66;5029988;28;45434;-83
2022/05/08 10:42:29;;;;;;;;;50.75;43.00;;;;;20.48;53.20;101957.59;5030200;28;46643;-85
2022/05/08 10:44:56;;;;;;;;;48.50;40.75;;;;;20.22;52.82;101891.34;5029230;28;45617;-82
2022/05/08 10:47:33;;;;;;;;;49.50;41.50;;;;;20.68;52.60;101952.50;5030775;28;45520;-82
2022/05/08 10:50:03;;;;;;;;;49.50;41.25;;;;;20.63;52.51;101946.19;5029682;28;45280;-83
2022/05/08 10:52:32;;;;;;;;;55.00;43.25;;;;;20.55;52.89;101896.25;5029622;28;45495;-84
2022/05/08 10:55:03;;;;;;;;;49.50;40.25;;;;;20.71;52.23;101896.44;5028260;28;46257;-84
2022/05/08 10:57:32;;;;;;;;;52.75;42.75;;;;;21.02;52.54;101954.69;5030323;28;45670;-85
2022/05/08 11:00:03;;;;;;;;;49.25;41.50;;;;;21.02;52.82;101933.28;5028847;28;45443;-83
2022/05/08 11:02:48;;;;;;;;;56.00;47.50;;;;;21.21;51.56;101954.88;5029428;28;45472;-83
2022/05/08 11:05:21;;;;;;;;;56.50;45.00;;;;;20.82;51.42;101906.34;5027991;28;45516;-85
2022/05/08 11:07:49;;;;;;;;;52.00;42.00;;;;;20.78;51.49;101920.56;5029672;28;45547;-83
2022/05/08 11:10:22;;;;;;;;;55.25;45.75;;;;;20.83;51.74;101953.56;5028107;28;45588;-83
2022/05/08 11:13:04;;;;;;;;;54.25;43.50;;;;;20.82;52.21;101953.56;5031429;28;45287;-83
2022/05/08 11:15:50;;;;;;;;;50.75;42.50;;;;;20.80;52.11;101920.59;5029751;28;45538;-86
2022/05/08 11:18:19;;;;;;;;;57.50;45.00;;;;;20.71;51.84;101877.72;5027800;28;45507;-83
2022/05/08 11:20:48;;;;;;;;;47.50;37.25;;;;;21.26;51.50;101939.78;5029325;28;45441;-82
2022/05/08 11:23:18;;;;;;;;;52.75;42.75;;;;;21.33;51.13;101944.34;5029428;28;46378;-85
2022/05/08 11:25:46;;;;;;;;;53.00;43.25;;;;;21.37;51.25;101946.16;5029440;28;45849;-84
2022/05/08 11:28:16;;;;;;;;;47.75;39.75;;;;;21.18;50.54;101912.97;5029058;28;45506;-85
2022/05/08 11:30:42;;;;;;;;;49.25;40.50;;;;;21.10;51.12;101910.22;5027645;28;45476;-83
2022/05/08 11:36:09;;;;;;;;;55.50;43.75;;;;;21.27;50.63;101929.09;5028569;28;45343;-84
2022/05/08 11:38:50;;;;;;;;;51.75;41.50;;;;;21.08;51.76;101909.31;5029575;28;45753;-84
2022/05/08 11:41:25;;;;;;;;;53.50;43.75;;;;;21.15;50.93;101931.66;5029291;28;45440;-83
2022/05/08 11:43:52;;;;;;;;;48.50;38.75;;;;;20.99;51.27;101900.31;5028458;28;45716;-83